sensor_id;sensor_type;location;lat;lon;timestamp;P1;durP1;ratioP1;P2;durP2;ratioP2
44512;SDS011;30219;50.588;9.504;2022-10-13T00:02:09;17.98;;;9.30;;
44512;SDS011;30219;50.588;9.504;2022-10-13T00:04:35;15.10;;;9.18;;
44512;SDS011;30219;50.588;9.504;2022-10-13T00:07:00;14.85;;;8.68;;
44512;SDS011;30219;50.588;9.504;2022-10-13T00:09:26;13.98;;;9.10;;
44512;SDS011;30219;50.588;9.504;2022-10-13T00:11:51;23.13;;;9.38;;
44512;SDS011;30219;50.588;9.504;2022-10-13T00:14:21;15.43;;;9.20;;
44512;SDS011;30219;50.588;9.504;2022-10-13T00:16:47;15.55;;;9.27;;
44512;SDS011;30219;50.588;9.504;2022-10-13T00:19:13;19.65;;;10.15;;
44512;SDS011;30219;50.588;9.504;2022-10-13T00:21:38;14.07;;;9.10;;
44512;SDS011;30219;50.588;9.504;2022-10-13T00:24:04;15.55;;;9.52;;
44512;SDS011;30219;50.588;9.504;2022-10-13T00:26:30;17.33;;;10.07;;
44512;SDS011;30219;50.588;9.504;2022-10-13T00:28:55;21.00;;;10.90;;
44512;SDS011;30219;50.588;9.504;2022-10-13T00:31:22;80.18;;;11.80;;
44512;SDS011;30219;50.588;9.504;2022-10-13T00:33:56;12.77;;;8.82;;
44512;SDS011;30219;50.588;9.504;2022-10-13T00:36:22;15.63;;;9.70;;
44512;SDS011;30219;50.588;9.504;2022-10-13T00:38:48;16.67;;;9.38;;
44512;SDS011;30219;50.588;9.504;2022-10-13T00:41:15;30.77;;;9.45;;
44512;SDS011;30219;50.588;9.504;2022-10-13T00:43:51;15.90;;;9.70;;
44512;SDS011;30219;50.588;9.504;2022-10-13T00:46:21;15.13;;;10.25;;
44512;SDS011;30219;50.588;9.504;2022-10-13T00:48:48;16.38;;;10.52;;
44512;SDS011;30219;50.588;9.504;2022-10-13T00:51:15;13.30;;;9.52;;
44512;SDS011;30219;50.588;9.504;2022-10-13T00:53:44;18.08;;;10.30;;
44512;SDS011;30219;50.588;9.504;2022-10-13T00:56:11;20.08;;;10.93;;
44512;SDS011;30219;50.588;9.504;2022-10-13T00:58:39;40.00;;;10.50;;
44512;SDS011;30219;50.588;9.504;2022-10-13T01:01:06;13.88;;;9.35;;
44512;SDS011;30219;50.588;9.504;2022-10-13T01:03:32;17.27;;;9.40;;
44512;SDS011;30219;50.588;9.504;2022-10-13T01:05:58;14.70;;;9.80;;
44512;SDS011;30219;50.588;9.504;2022-10-13T01:08:26;17.25;;;10.57;;
44512;SDS011;30219;50.588;9.504;2022-10-13T01:13:55;18.23;;;10.57;;
44512;SDS011;30219;50.588;9.504;2022-10-13T01:16:49;16.90;;;10.27;;
44512;SDS011;30219;50.588;9.504;2022-10-13T01:27:50;38.40;;;13.18;;
44512;SDS011;30219;50.588;9.504;2022-10-13T01:30:24;20.30;;;12.10;;
44512;SDS011;30219;50.588;9.504;2022-10-13T01:40:58;23.33;;;11.80;;
44512;SDS011;30219;50.588;9.504;2022-10-13T01:46:29;20.30;;;10.85;;
44512;SDS011;30219;50.588;9.504;2022-10-13T01:49:00;16.05;;;10.32;;
44512;SDS011;30219;50.588;9.504;2022-10-13T01:51:29;22.73;;;12.10;;
44512;SDS011;30219;50.588;9.504;2022-10-13T01:53:56;22.27;;;12.20;;
44512;SDS011;30219;50.588;9.504;2022-10-13T01:56:22;29.20;;;13.07;;
44512;SDS011;30219;50.588;9.504;2022-10-13T01:58:48;21.83;;;12.02;;
44512;SDS011;30219;50.588;9.504;2022-10-13T02:07:00;20.95;;;12.68;;
44512;SDS011;30219;50.588;9.504;2022-10-13T02:09:40;32.47;;;11.95;;
44512;SDS011;30219;50.588;9.504;2022-10-13T02:12:19;15.93;;;10.73;;
44512;SDS011;30219;50.588;9.504;2022-10-13T02:14:56;14.93;;;8.52;;
44512;SDS011;30219;50.588;9.504;2022-10-13T02:17:25;21.48;;;11.75;;
44512;SDS011;30219;50.588;9.504;2022-10-13T02:19:52;18.15;;;11.55;;
44512;SDS011;30219;50.588;9.504;2022-10-13T02:22:19;18.60;;;10.98;;
44512;SDS011;30219;50.588;9.504;2022-10-13T02:24:48;18.95;;;11.63;;
44512;SDS011;30219;50.588;9.504;2022-10-13T02:27:13;20.75;;;12.25;;
44512;SDS011;30219;50.588;9.504;2022-10-13T02:29:49;17.92;;;10.07;;
44512;SDS011;30219;50.588;9.504;2022-10-13T02:32:17;17.88;;;10.27;;
44512;SDS011;30219;50.588;9.504;2022-10-13T02:34:42;21.15;;;10.95;;
44512;SDS011;30219;50.588;9.504;2022-10-13T02:37:08;17.30;;;10.65;;
44512;SDS011;30219;50.588;9.504;2022-10-13T02:39:33;18.23;;;11.15;;
44512;SDS011;30219;50.588;9.504;2022-10-13T02:41:59;33.00;;;10.82;;
44512;SDS011;30219;50.588;9.504;2022-10-13T02:44:24;79.00;;;12.80;;
44512;SDS011;30219;50.588;9.504;2022-10-13T02:46:50;22.60;;;11.15;;
44512;SDS011;30219;50.588;9.504;2022-10-13T02:49:15;23.23;;;11.75;;
44512;SDS011;30219;50.588;9.504;2022-10-13T02:51:41;28.00;;;12.05;;
44512;SDS011;30219;50.588;9.504;2022-10-13T02:54:07;26.52;;;11.98;;
44512;SDS011;30219;50.588;9.504;2022-10-13T02:56:32;16.05;;;10.95;;
44512;SDS011;30219;50.588;9.504;2022-10-13T02:58:58;54.17;;;12.43;;
44512;SDS011;30219;50.588;9.504;2022-10-13T03:01:24;61.10;;;11.90;;
44512;SDS011;30219;50.588;9.504;2022-10-13T03:03:49;19.20;;;11.52;;
44512;SDS011;30219;50.588;9.504;2022-10-13T03:06:15;23.98;;;12.50;;
44512;SDS011;30219;50.588;9.504;2022-10-13T03:08:40;20.27;;;12.85;;
44512;SDS011;30219;50.588;9.504;2022-10-13T03:11:06;21.02;;;12.48;;
44512;SDS011;30219;50.588;9.504;2022-10-13T03:13:31;19.40;;;12.07;;
44512;SDS011;30219;50.588;9.504;2022-10-13T03:15:57;17.42;;;11.52;;
44512;SDS011;30219;50.588;9.504;2022-10-13T03:18:23;27.20;;;11.90;;
44512;SDS011;30219;50.588;9.504;2022-10-13T03:20:58;40.60;;;12.63;;
44512;SDS011;30219;50.588;9.504;2022-10-13T03:23:26;68.05;;;15.27;;
44512;SDS011;30219;50.588;9.504;2022-10-13T03:25:52;33.13;;;13.45;;
44512;SDS011;30219;50.588;9.504;2022-10-13T03:28:18;36.70;;;14.65;;
44512;SDS011;30219;50.588;9.504;2022-10-13T03:30:44;49.65;;;15.07;;
44512;SDS011;30219;50.588;9.504;2022-10-13T03:33:10;51.40;;;15.82;;
44512;SDS011;30219;50.588;9.504;2022-10-13T03:35:35;17.13;;;11.57;;
44512;SDS011;30219;50.588;9.504;2022-10-13T03:38:01;23.63;;;12.85;;
44512;SDS011;30219;50.588;9.504;2022-10-13T03:40:27;21.88;;;12.25;;
44512;SDS011;30219;50.588;9.504;2022-10-13T03:42:53;24.85;;;13.88;;
44512;SDS011;30219;50.588;9.504;2022-10-13T03:45:18;25.27;;;14.57;;
44512;SDS011;30219;50.588;9.504;2022-10-13T03:47:44;32.28;;;14.63;;
44512;SDS011;30219;50.588;9.504;2022-10-13T03:50:10;30.58;;;16.35;;
44512;SDS011;30219;50.588;9.504;2022-10-13T03:52:36;29.95;;;15.35;;
44512;SDS011;30219;50.588;9.504;2022-10-13T03:55:01;33.85;;;15.48;;
44512;SDS011;30219;50.588;9.504;2022-10-13T03:57:27;92.63;;;19.60;;
44512;SDS011;30219;50.588;9.504;2022-10-13T03:59:53;30.58;;;14.73;;
44512;SDS011;30219;50.588;9.504;2022-10-13T04:02:20;29.80;;;14.57;;
44512;SDS011;30219;50.588;9.504;2022-10-13T04:04:46;41.15;;;16.20;;
44512;SDS011;30219;50.588;9.504;2022-10-13T04:07:12;32.65;;;15.80;;
44512;SDS011;30219;50.588;9.504;2022-10-13T04:09:37;33.88;;;14.88;;
44512;SDS011;30219;50.588;9.504;2022-10-13T04:12:03;35.35;;;15.77;;
44512;SDS011;30219;50.588;9.504;2022-10-13T04:14:28;127.35;;;19.88;;
44512;SDS011;30219;50.588;9.504;2022-10-13T04:16:54;32.58;;;15.23;;
44512;SDS011;30219;50.588;9.504;2022-10-13T04:19:20;38.20;;;15.25;;
44512;SDS011;30219;50.588;9.504;2022-10-13T04:21:48;37.17;;;15.77;;
44512;SDS011;30219;50.588;9.504;2022-10-13T04:24:13;40.72;;;16.05;;
44512;SDS011;30219;50.588;9.504;2022-10-13T04:26:41;42.75;;;16.70;;
44512;SDS011;30219;50.588;9.504;2022-10-13T04:29:08;50.88;;;16.90;;
44512;SDS011;30219;50.588;9.504;2022-10-13T04:31:35;48.65;;;16.67;;
44512;SDS011;30219;50.588;9.504;2022-10-13T04:34:01;42.60;;;16.80;;
44512;SDS011;30219;50.588;9.504;2022-10-13T04:36:28;56.60;;;17.23;;
44512;SDS011;30219;50.588;9.504;2022-10-13T04:38:53;45.83;;;16.98;;
44512;SDS011;30219;50.588;9.504;2022-10-13T04:41:19;46.88;;;16.95;;
44512;SDS011;30219;50.588;9.504;2022-10-13T04:43:46;46.63;;;19.10;;
44512;SDS011;30219;50.588;9.504;2022-10-13T04:46:13;40.17;;;17.63;;
44512;SDS011;30219;50.588;9.504;2022-10-13T04:48:46;33.03;;;15.35;;
44512;SDS011;30219;50.588;9.504;2022-10-13T04:51:14;38.22;;;17.67;;
44512;SDS011;30219;50.588;9.504;2022-10-13T04:53:43;42.47;;;17.23;;
44512;SDS011;30219;50.588;9.504;2022-10-13T04:56:11;38.40;;;15.88;;
44512;SDS011;30219;50.588;9.504;2022-10-13T04:58:38;35.47;;;16.05;;
44512;SDS011;30219;50.588;9.504;2022-10-13T05:01:05;34.53;;;15.77;;
44512;SDS011;30219;50.588;9.504;2022-10-13T05:03:32;29.67;;;14.25;;
44512;SDS011;30219;50.588;9.504;2022-10-13T05:05:58;30.30;;;15.40;;
44512;SDS011;30219;50.588;9.504;2022-10-13T05:08:24;31.92;;;15.98;;
44512;SDS011;30219;50.588;9.504;2022-10-13T05:10:54;84.28;;;18.05;;
44512;SDS011;30219;50.588;9.504;2022-10-13T05:13:21;85.07;;;16.60;;
44512;SDS011;30219;50.588;9.504;2022-10-13T05:15:47;37.30;;;15.13;;
44512;SDS011;30219;50.588;9.504;2022-10-13T05:18:13;35.47;;;16.50;;
44512;SDS011;30219;50.588;9.504;2022-10-13T05:20:38;34.47;;;16.25;;
44512;SDS011;30219;50.588;9.504;2022-10-13T05:23:04;42.17;;;17.83;;
44512;SDS011;30219;50.588;9.504;2022-10-13T05:25:29;47.90;;;18.90;;
44512;SDS011;30219;50.588;9.504;2022-10-13T05:27:55;49.13;;;18.90;;
44512;SDS011;30219;50.588;9.504;2022-10-13T05:30:21;63.70;;;18.50;;
44512;SDS011;30219;50.588;9.504;2022-10-13T05:32:46;47.22;;;19.15;;
44512;SDS011;30219;50.588;9.504;2022-10-13T05:35:12;50.80;;;18.02;;
44512;SDS011;30219;50.588;9.504;2022-10-13T05:37:37;49.75;;;20.60;;
44512;SDS011;30219;50.588;9.504;2022-10-13T05:40:03;44.42;;;17.35;;
44512;SDS011;30219;50.588;9.504;2022-10-13T05:42:29;53.17;;;20.25;;
44512;SDS011;30219;50.588;9.504;2022-10-13T05:44:55;44.65;;;19.52;;
44512;SDS011;30219;50.588;9.504;2022-10-13T05:47:21;50.40;;;20.55;;
44512;SDS011;30219;50.588;9.504;2022-10-13T05:49:50;53.95;;;20.08;;
44512;SDS011;30219;50.588;9.504;2022-10-13T05:52:16;57.25;;;19.95;;
44512;SDS011;30219;50.588;9.504;2022-10-13T05:54:42;43.40;;;18.27;;
44512;SDS011;30219;50.588;9.504;2022-10-13T05:57:13;45.30;;;19.48;;
44512;SDS011;30219;50.588;9.504;2022-10-13T05:59:42;46.15;;;19.77;;
44512;SDS011;30219;50.588;9.504;2022-10-13T06:02:13;79.75;;;22.92;;
44512;SDS011;30219;50.588;9.504;2022-10-13T06:04:42;80.97;;;22.70;;
44512;SDS011;30219;50.588;9.504;2022-10-13T06:07:11;58.75;;;20.80;;
44512;SDS011;30219;50.588;9.504;2022-10-13T06:09:37;53.10;;;20.65;;
44512;SDS011;30219;50.588;9.504;2022-10-13T06:12:05;52.25;;;19.92;;
44512;SDS011;30219;50.588;9.504;2022-10-13T06:14:31;40.33;;;17.92;;
44512;SDS011;30219;50.588;9.504;2022-10-13T06:16:57;46.88;;;19.23;;
44512;SDS011;30219;50.588;9.504;2022-10-13T06:19:23;55.33;;;20.40;;
44512;SDS011;30219;50.588;9.504;2022-10-13T06:21:48;58.22;;;21.55;;
44512;SDS011;30219;50.588;9.504;2022-10-13T06:24:14;56.88;;;20.83;;
44512;SDS011;30219;50.588;9.504;2022-10-13T06:26:40;53.53;;;20.38;;
44512;SDS011;30219;50.588;9.504;2022-10-13T06:29:05;67.88;;;25.88;;
44512;SDS011;30219;50.588;9.504;2022-10-13T06:31:31;56.88;;;21.98;;
44512;SDS011;30219;50.588;9.504;2022-10-13T06:33:57;63.80;;;22.15;;
44512;SDS011;30219;50.588;9.504;2022-10-13T06:36:23;49.85;;;19.58;;
44512;SDS011;30219;50.588;9.504;2022-10-13T06:38:48;63.80;;;21.60;;
44512;SDS011;30219;50.588;9.504;2022-10-13T06:41:14;52.28;;;21.73;;
44512;SDS011;30219;50.588;9.504;2022-10-13T06:43:40;48.60;;;21.23;;
44512;SDS011;30219;50.588;9.504;2022-10-13T06:46:06;55.45;;;23.50;;
44512;SDS011;30219;50.588;9.504;2022-10-13T06:48:32;58.40;;;22.27;;
44512;SDS011;30219;50.588;9.504;2022-10-13T06:51:01;60.10;;;24.98;;
44512;SDS011;30219;50.588;9.504;2022-10-13T06:53:32;59.95;;;24.88;;
44512;SDS011;30219;50.588;9.504;2022-10-13T06:55:59;53.85;;;24.83;;
44512;SDS011;30219;50.588;9.504;2022-10-13T06:58:25;65.57;;;25.77;;
44512;SDS011;30219;50.588;9.504;2022-10-13T07:00:51;53.45;;;24.38;;
44512;SDS011;30219;50.588;9.504;2022-10-13T07:03:17;64.30;;;24.63;;
44512;SDS011;30219;50.588;9.504;2022-10-13T07:05:43;64.78;;;25.88;;
44512;SDS011;30219;50.588;9.504;2022-10-13T07:08:09;64.43;;;25.75;;
44512;SDS011;30219;50.588;9.504;2022-10-13T07:10:36;58.55;;;25.40;;
44512;SDS011;30219;50.588;9.504;2022-10-13T07:13:02;66.85;;;26.00;;
44512;SDS011;30219;50.588;9.504;2022-10-13T07:15:28;68.65;;;27.20;;
44512;SDS011;30219;50.588;9.504;2022-10-13T07:17:53;75.35;;;25.67;;
44512;SDS011;30219;50.588;9.504;2022-10-13T07:20:22;65.47;;;24.48;;
44512;SDS011;30219;50.588;9.504;2022-10-13T07:22:51;66.95;;;24.08;;
44512;SDS011;30219;50.588;9.504;2022-10-13T07:25:17;66.80;;;24.58;;
44512;SDS011;30219;50.588;9.504;2022-10-13T07:27:43;57.95;;;22.75;;
44512;SDS011;30219;50.588;9.504;2022-10-13T07:30:09;54.30;;;22.33;;
44512;SDS011;30219;50.588;9.504;2022-10-13T07:32:36;52.75;;;20.60;;
44512;SDS011;30219;50.588;9.504;2022-10-13T07:35:03;55.47;;;20.15;;
44512;SDS011;30219;50.588;9.504;2022-10-13T07:37:29;60.10;;;22.52;;
44512;SDS011;30219;50.588;9.504;2022-10-13T07:39:54;56.08;;;22.55;;
44512;SDS011;30219;50.588;9.504;2022-10-13T07:42:20;43.92;;;20.00;;
44512;SDS011;30219;50.588;9.504;2022-10-13T07:44:45;46.38;;;20.70;;
44512;SDS011;30219;50.588;9.504;2022-10-13T07:47:11;49.63;;;22.58;;
44512;SDS011;30219;50.588;9.504;2022-10-13T07:49:37;42.05;;;18.30;;
44512;SDS011;30219;50.588;9.504;2022-10-13T07:52:02;35.28;;;16.77;;
44512;SDS011;30219;50.588;9.504;2022-10-13T07:54:28;35.47;;;16.88;;
44512;SDS011;30219;50.588;9.504;2022-10-13T07:56:54;35.63;;;15.82;;
44512;SDS011;30219;50.588;9.504;2022-10-13T07:59:20;35.25;;;16.30;;
44512;SDS011;30219;50.588;9.504;2022-10-13T08:01:46;36.88;;;15.40;;
44512;SDS011;30219;50.588;9.504;2022-10-13T08:04:12;36.28;;;15.57;;
44512;SDS011;30219;50.588;9.504;2022-10-13T08:06:38;31.50;;;14.57;;
44512;SDS011;30219;50.588;9.504;2022-10-13T08:09:04;30.33;;;14.02;;
44512;SDS011;30219;50.588;9.504;2022-10-13T08:11:30;35.58;;;15.00;;
44512;SDS011;30219;50.588;9.504;2022-10-13T08:13:56;29.73;;;15.05;;
44512;SDS011;30219;50.588;9.504;2022-10-13T08:16:25;31.63;;;13.93;;
44512;SDS011;30219;50.588;9.504;2022-10-13T08:18:51;27.55;;;14.18;;
44512;SDS011;30219;50.588;9.504;2022-10-13T08:21:18;33.20;;;15.57;;
44512;SDS011;30219;50.588;9.504;2022-10-13T08:23:46;27.02;;;14.38;;
44512;SDS011;30219;50.588;9.504;2022-10-13T08:26:17;28.85;;;15.68;;
44512;SDS011;30219;50.588;9.504;2022-10-13T08:28:47;27.63;;;15.07;;
44512;SDS011;30219;50.588;9.504;2022-10-13T08:31:14;27.25;;;14.70;;
44512;SDS011;30219;50.588;9.504;2022-10-13T08:33:39;23.27;;;13.15;;
44512;SDS011;30219;50.588;9.504;2022-10-13T08:36:05;25.85;;;13.73;;
44512;SDS011;30219;50.588;9.504;2022-10-13T08:38:31;23.70;;;12.18;;
44512;SDS011;30219;50.588;9.504;2022-10-13T08:40:57;23.50;;;12.10;;
44512;SDS011;30219;50.588;9.504;2022-10-13T08:43:24;20.50;;;11.30;;
44512;SDS011;30219;50.588;9.504;2022-10-13T08:45:51;24.63;;;12.27;;
44512;SDS011;30219;50.588;9.504;2022-10-13T08:48:23;21.38;;;11.20;;
44512;SDS011;30219;50.588;9.504;2022-10-13T08:50:54;22.50;;;11.43;;
44512;SDS011;30219;50.588;9.504;2022-10-13T08:53:24;22.80;;;11.25;;
44512;SDS011;30219;50.588;9.504;2022-10-13T08:56:18;21.90;;;11.07;;
44512;SDS011;30219;50.588;9.504;2022-10-13T08:58:49;26.13;;;11.93;;
44512;SDS011;30219;50.588;9.504;2022-10-13T09:06:23;19.42;;;11.15;;
44512;SDS011;30219;50.588;9.504;2022-10-13T09:11:33;23.30;;;12.32;;
44512;SDS011;30219;50.588;9.504;2022-10-13T09:14:02;26.10;;;12.68;;
44512;SDS011;30219;50.588;9.504;2022-10-13T09:16:33;22.67;;;12.20;;
44512;SDS011;30219;50.588;9.504;2022-10-13T09:19:14;25.38;;;13.07;;
44512;SDS011;30219;50.588;9.504;2022-10-13T09:21:45;21.85;;;10.73;;
44512;SDS011;30219;50.588;9.504;2022-10-13T09:24:16;24.25;;;12.82;;
44512;SDS011;30219;50.588;9.504;2022-10-13T09:26:44;20.80;;;11.32;;
44512;SDS011;30219;50.588;9.504;2022-10-13T09:29:21;21.70;;;11.73;;
44512;SDS011;30219;50.588;9.504;2022-10-13T09:31:49;18.67;;;10.65;;
44512;SDS011;30219;50.588;9.504;2022-10-13T09:36:54;18.75;;;10.82;;
44512;SDS011;30219;50.588;9.504;2022-10-13T09:39:24;24.25;;;11.57;;
44512;SDS011;30219;50.588;9.504;2022-10-13T09:41:50;21.60;;;11.88;;
44512;SDS011;30219;50.588;9.504;2022-10-13T09:44:27;23.85;;;12.60;;
44512;SDS011;30219;50.588;9.504;2022-10-13T09:46:55;24.70;;;11.02;;
44512;SDS011;30219;50.588;9.504;2022-10-13T09:52:02;22.50;;;11.50;;
44512;SDS011;30219;50.588;9.504;2022-10-13T09:54:47;22.23;;;10.95;;
44512;SDS011;30219;50.588;9.504;2022-10-13T10:00:01;22.10;;;10.93;;
44512;SDS011;30219;50.588;9.504;2022-10-13T10:08:17;21.33;;;11.10;;
44512;SDS011;30219;50.588;9.504;2022-10-13T10:10:50;25.38;;;11.70;;
44512;SDS011;30219;50.588;9.504;2022-10-13T10:13:16;25.00;;;11.43;;
44512;SDS011;30219;50.588;9.504;2022-10-13T10:15:52;26.60;;;11.60;;
44512;SDS011;30219;50.588;9.504;2022-10-13T10:18:22;24.33;;;11.40;;
44512;SDS011;30219;50.588;9.504;2022-10-13T10:21:11;23.75;;;11.93;;
44512;SDS011;30219;50.588;9.504;2022-10-13T10:23:58;26.20;;;11.55;;
44512;SDS011;30219;50.588;9.504;2022-10-13T10:29:20;25.08;;;11.35;;
44512;SDS011;30219;50.588;9.504;2022-10-13T10:35:00;21.67;;;11.90;;
44512;SDS011;30219;50.588;9.504;2022-10-13T10:37:37;18.63;;;10.32;;
44512;SDS011;30219;50.588;9.504;2022-10-13T10:40:15;16.88;;;10.95;;
44512;SDS011;30219;50.588;9.504;2022-10-13T10:45:56;20.35;;;11.15;;
44512;SDS011;30219;50.588;9.504;2022-10-13T10:48:27;25.63;;;11.23;;
44512;SDS011;30219;50.588;9.504;2022-10-13T10:50:58;22.67;;;10.77;;
44512;SDS011;30219;50.588;9.504;2022-10-13T10:56:03;20.83;;;10.93;;
44512;SDS011;30219;50.588;9.504;2022-10-13T11:01:35;20.27;;;10.45;;
44512;SDS011;30219;50.588;9.504;2022-10-13T11:06:55;22.48;;;10.70;;
44512;SDS011;30219;50.588;9.504;2022-10-13T11:14:43;24.23;;;11.15;;
44512;SDS011;30219;50.588;9.504;2022-10-13T11:17:26;21.67;;;10.85;;
44512;SDS011;30219;50.588;9.504;2022-10-13T11:19:52;23.63;;;10.40;;
44512;SDS011;30219;50.588;9.504;2022-10-13T11:22:19;21.17;;;10.85;;
44512;SDS011;30219;50.588;9.504;2022-10-13T11:24:48;26.73;;;11.75;;
44512;SDS011;30219;50.588;9.504;2022-10-13T11:27:17;23.27;;;11.52;;
44512;SDS011;30219;50.588;9.504;2022-10-13T11:29:52;21.02;;;12.07;;
44512;SDS011;30219;50.588;9.504;2022-10-13T11:34:59;24.63;;;12.48;;
44512;SDS011;30219;50.588;9.504;2022-10-13T11:37:31;20.45;;;11.68;;
44512;SDS011;30219;50.588;9.504;2022-10-13T11:48:27;27.92;;;13.85;;
44512;SDS011;30219;50.588;9.504;2022-10-13T11:54:05;24.85;;;12.93;;
44512;SDS011;30219;50.588;9.504;2022-10-13T11:57:00;26.45;;;12.55;;
44512;SDS011;30219;50.588;9.504;2022-10-13T12:04:33;26.83;;;11.43;;
44512;SDS011;30219;50.588;9.504;2022-10-13T12:07:01;25.67;;;11.48;;
44512;SDS011;30219;50.588;9.504;2022-10-13T12:09:47;22.42;;;11.25;;
44512;SDS011;30219;50.588;9.504;2022-10-13T12:12:17;22.48;;;11.38;;
44512;SDS011;30219;50.588;9.504;2022-10-13T12:14:46;27.65;;;11.50;;
44512;SDS011;30219;50.588;9.504;2022-10-13T12:17:19;24.20;;;10.90;;
44512;SDS011;30219;50.588;9.504;2022-10-13T12:19:47;17.52;;;10.98;;
44512;SDS011;30219;50.588;9.504;2022-10-13T12:22:13;20.67;;;10.48;;
44512;SDS011;30219;50.588;9.504;2022-10-13T12:24:39;21.70;;;10.82;;
44512;SDS011;30219;50.588;9.504;2022-10-13T12:27:09;25.58;;;9.70;;
44512;SDS011;30219;50.588;9.504;2022-10-13T12:29:41;24.52;;;10.88;;
44512;SDS011;30219;50.588;9.504;2022-10-13T12:32:19;18.48;;;9.07;;
44512;SDS011;30219;50.588;9.504;2022-10-13T12:35:08;30.15;;;10.50;;
44512;SDS011;30219;50.588;9.504;2022-10-13T12:37:44;23.10;;;10.35;;
44512;SDS011;30219;50.588;9.504;2022-10-13T12:40:13;25.05;;;8.93;;
44512;SDS011;30219;50.588;9.504;2022-10-13T12:42:40;18.75;;;9.60;;
44512;SDS011;30219;50.588;9.504;2022-10-13T12:45:12;18.75;;;9.95;;
44512;SDS011;30219;50.588;9.504;2022-10-13T12:52:53;22.02;;;9.48;;
44512;SDS011;30219;50.588;9.504;2022-10-13T12:55:21;20.15;;;8.90;;
44512;SDS011;30219;50.588;9.504;2022-10-13T12:57:48;23.95;;;10.98;;
44512;SDS011;30219;50.588;9.504;2022-10-13T13:02:49;19.45;;;8.88;;
44512;SDS011;30219;50.588;9.504;2022-10-13T13:07:59;20.75;;;8.35;;
44512;SDS011;30219;50.588;9.504;2022-10-13T13:10:26;17.23;;;8.15;;
44512;SDS011;30219;50.588;9.504;2022-10-13T13:12:52;18.35;;;8.57;;
44512;SDS011;30219;50.588;9.504;2022-10-13T13:15:32;19.15;;;8.38;;
44512;SDS011;30219;50.588;9.504;2022-10-13T13:21:05;20.70;;;8.18;;
44512;SDS011;30219;50.588;9.504;2022-10-13T13:23:32;15.50;;;8.55;;
44512;SDS011;30219;50.588;9.504;2022-10-13T13:26:00;16.15;;;8.75;;
44512;SDS011;30219;50.588;9.504;2022-10-13T13:28:50;18.77;;;7.75;;
44512;SDS011;30219;50.588;9.504;2022-10-13T13:31:18;15.52;;;8.20;;
44512;SDS011;30219;50.588;9.504;2022-10-13T13:33:46;14.20;;;7.88;;
44512;SDS011;30219;50.588;9.504;2022-10-13T13:38:48;15.10;;;8.93;;
44512;SDS011;30219;50.588;9.504;2022-10-13T13:41:14;17.20;;;8.40;;
44512;SDS011;30219;50.588;9.504;2022-10-13T13:43:40;14.75;;;9.18;;
44512;SDS011;30219;50.588;9.504;2022-10-13T13:46:06;18.58;;;10.00;;
44512;SDS011;30219;50.588;9.504;2022-10-13T13:48:39;21.42;;;9.23;;
44512;SDS011;30219;50.588;9.504;2022-10-13T13:51:05;20.38;;;9.73;;
44512;SDS011;30219;50.588;9.504;2022-10-13T13:53:32;18.27;;;9.73;;
44512;SDS011;30219;50.588;9.504;2022-10-13T13:55:57;22.23;;;10.52;;
44512;SDS011;30219;50.588;9.504;2022-10-13T13:58:23;23.95;;;9.65;;
44512;SDS011;30219;50.588;9.504;2022-10-13T14:00:48;21.02;;;9.40;;
44512;SDS011;30219;50.588;9.504;2022-10-13T14:03:14;20.65;;;9.38;;
44512;SDS011;30219;50.588;9.504;2022-10-13T14:05:40;16.33;;;10.35;;
44512;SDS011;30219;50.588;9.504;2022-10-13T14:08:06;18.83;;;9.43;;
44512;SDS011;30219;50.588;9.504;2022-10-13T14:10:32;20.88;;;9.98;;
44512;SDS011;30219;50.588;9.504;2022-10-13T14:12:58;18.65;;;9.52;;
44512;SDS011;30219;50.588;9.504;2022-10-13T14:15:24;15.95;;;9.25;;
44512;SDS011;30219;50.588;9.504;2022-10-13T14:17:50;25.38;;;10.38;;
44512;SDS011;30219;50.588;9.504;2022-10-13T14:20:16;22.00;;;10.18;;
44512;SDS011;30219;50.588;9.504;2022-10-13T14:22:42;18.60;;;9.20;;
44512;SDS011;30219;50.588;9.504;2022-10-13T14:25:08;22.75;;;9.48;;
44512;SDS011;30219;50.588;9.504;2022-10-13T14:27:34;20.15;;;9.02;;
44512;SDS011;30219;50.588;9.504;2022-10-13T14:30:01;21.35;;;8.55;;
44512;SDS011;30219;50.588;9.504;2022-10-13T14:32:29;18.45;;;9.43;;
44512;SDS011;30219;50.588;9.504;2022-10-13T14:34:55;20.85;;;9.07;;
44512;SDS011;30219;50.588;9.504;2022-10-13T14:37:20;14.05;;;9.00;;
44512;SDS011;30219;50.588;9.504;2022-10-13T14:39:46;18.45;;;10.15;;
44512;SDS011;30219;50.588;9.504;2022-10-13T14:42:11;19.92;;;8.90;;
44512;SDS011;30219;50.588;9.504;2022-10-13T14:44:37;21.17;;;9.02;;
44512;SDS011;30219;50.588;9.504;2022-10-13T14:47:02;21.35;;;8.75;;
44512;SDS011;30219;50.588;9.504;2022-10-13T14:49:28;15.95;;;8.90;;
44512;SDS011;30219;50.588;9.504;2022-10-13T14:51:53;16.92;;;8.75;;
44512;SDS011;30219;50.588;9.504;2022-10-13T14:54:19;20.58;;;8.80;;
44512;SDS011;30219;50.588;9.504;2022-10-13T14:56:45;16.00;;;8.95;;
44512;SDS011;30219;50.588;9.504;2022-10-13T14:59:11;17.25;;;8.35;;
44512;SDS011;30219;50.588;9.504;2022-10-13T15:01:37;14.95;;;7.72;;
44512;SDS011;30219;50.588;9.504;2022-10-13T15:04:03;17.60;;;8.45;;
44512;SDS011;30219;50.588;9.504;2022-10-13T15:06:29;16.98;;;8.23;;
44512;SDS011;30219;50.588;9.504;2022-10-13T15:08:55;13.60;;;7.63;;
44512;SDS011;30219;50.588;9.504;2022-10-13T15:11:21;19.20;;;7.78;;
44512;SDS011;30219;50.588;9.504;2022-10-13T15:13:48;14.13;;;8.05;;
44512;SDS011;30219;50.588;9.504;2022-10-13T15:16:15;16.40;;;8.68;;
44512;SDS011;30219;50.588;9.504;2022-10-13T15:18:45;18.10;;;8.87;;
44512;SDS011;30219;50.588;9.504;2022-10-13T15:21:11;18.27;;;8.50;;
44512;SDS011;30219;50.588;9.504;2022-10-13T15:23:38;14.55;;;8.68;;
44512;SDS011;30219;50.588;9.504;2022-10-13T15:26:03;19.90;;;8.32;;
44512;SDS011;30219;50.588;9.504;2022-10-13T15:28:33;21.55;;;9.98;;
44512;SDS011;30219;50.588;9.504;2022-10-13T15:31:00;18.33;;;8.25;;
44512;SDS011;30219;50.588;9.504;2022-10-13T15:33:25;15.27;;;8.90;;
44512;SDS011;30219;50.588;9.504;2022-10-13T15:35:51;18.73;;;8.02;;
44512;SDS011;30219;50.588;9.504;2022-10-13T15:38:18;18.70;;;8.15;;
44512;SDS011;30219;50.588;9.504;2022-10-13T15:40:45;23.80;;;9.23;;
44512;SDS011;30219;50.588;9.504;2022-10-13T15:43:11;22.20;;;8.60;;
44512;SDS011;30219;50.588;9.504;2022-10-13T15:45:37;20.05;;;8.80;;
44512;SDS011;30219;50.588;9.504;2022-10-13T15:48:06;16.67;;;7.72;;
44512;SDS011;30219;50.588;9.504;2022-10-13T15:50:33;18.83;;;8.40;;
44512;SDS011;30219;50.588;9.504;2022-10-13T15:53:02;20.83;;;9.45;;
44512;SDS011;30219;50.588;9.504;2022-10-13T15:55:27;15.57;;;8.85;;
44512;SDS011;30219;50.588;9.504;2022-10-13T15:57:53;19.95;;;8.80;;
44512;SDS011;30219;50.588;9.504;2022-10-13T16:00:18;20.88;;;8.52;;
44512;SDS011;30219;50.588;9.504;2022-10-13T16:02:47;18.20;;;9.15;;
44512;SDS011;30219;50.588;9.504;2022-10-13T16:05:14;20.17;;;9.77;;
44512;SDS011;30219;50.588;9.504;2022-10-13T16:07:39;20.05;;;9.48;;
44512;SDS011;30219;50.588;9.504;2022-10-13T16:10:06;16.15;;;9.50;;
44512;SDS011;30219;50.588;9.504;2022-10-13T16:12:32;20.35;;;9.90;;
44512;SDS011;30219;50.588;9.504;2022-10-13T16:14:58;21.40;;;10.23;;
44512;SDS011;30219;50.588;9.504;2022-10-13T16:17:23;18.80;;;9.93;;
44512;SDS011;30219;50.588;9.504;2022-10-13T16:19:49;23.35;;;10.82;;